aviador You're here:

KOZR Decoded Metar

OZARK/CAIRNS AAF in AL, USA
Report Time2017-07-22 23:15:00
UTC Time2017-07-23 00:54:49
Flight Rules Old
Wind240° at 08 kt
W.Decomp.*RWY 24: 8.0 kt HW 0.4 kt RCW
RWY 18: 3.6 kt HW 7.1 kt RCW
W.Rank240° ranks 23
Current wind is above 240° avg. (5.4)
Visibility9999 m
Phenomena:N/A
Clouds:Scattered 033 Hf
Broken 120 Hf
Expected CloudBase > 1,200 ft AGL from Temp-Dew spread
Ceiling12,000 ft
Temp26°C (ISA +12)
Dew Point23°C (84% RH)
QNH1015 hPa
Density Alt1,949 ft
Elevation305 ft
Report Wrong Elevation
Raw Report
KOZR 222315Z AUTO 24008KT 10SM SCT033 BKN120 26/23 A2997 RMK AO2
RAE13DZB13E15 SLP149=

Extra information for KOZR:More info

Metar Taf Metar & Taf Last 4 Metars F.Rules Stats Wind Profile Meteogram Temp Stats Airport Information Weather charts Add Link Nearby VenuesMetar ALERT Operation Metar Decoded Social comments

AIRNAV info for KOZR